Time;durP1;ratioP1;P1;durP2;ratioP2;P2;SDS_P1;SDS_P2;PMS_P1;PMS_P2;Temp;Humidity;BMP_temperature;BMP_pressure;BME280_temperature;BME280_humidity;BME280_pressure;Samples;Min_cycle;Max_cycle;Signal;HPM_P1;HPM_P2
2023/11/17 00:01:28;;;;;;;7.05;4.13;;;10.40;93.30;;;;;;5081943;28;20091;-73
2023/11/17 00:03:54;;;;;;;7.60;3.28;;;;;;;;;;5081944;28;20385;-73
2023/11/17 00:06:20;;;;;;;6.15;3.63;;;10.30;93.80;;;;;;5081959;28;20204;-71
2023/11/17 00:08:46;;;;;;;10.20;3.97;;;;;;;;;;5081913;28;20367;-71
2023/11/17 00:11:12;;;;;;;6.78;3.45;;;10.30;93.70;;;;;;5081826;28;20016;-70
2023/11/17 00:13:41;;;;;;;6.78;3.13;;;10.30;85.00;;;;;;5081918;28;20248;-68
2023/11/17 00:16:09;;;;;;;;;;;10.30;85.50;;;;;;5081900;28;20084;-68
2023/11/17 00:18:35;;;;;;;8.07;2.92;;;;;;;;;;5081368;28;19957;-68
2023/11/17 00:21:02;;;;;;;14.20;3.63;;;10.30;94.40;;;;;;5081418;28;20327;-69
2023/11/17 00:23:29;;;;;;;4.82;3.40;;;10.10;94.50;;;;;;5081425;28;20083;-68
2023/11/17 00:25:55;;;;;;;6.85;3.42;;;;;;;;;;5081153;28;20060;-70
2023/11/17 00:28:24;;;;;;;6.30;3.40;;;10.40;94.40;;;;;;5081600;28;20106;-70
2023/11/17 00:30:50;;;;;;;;;;;10.30;86.70;;;;;;5081840;28;20024;-70
2023/11/17 00:33:16;;;;;;;5.65;3.22;;;10.20;85.50;;;;;;5081885;28;19908;-70
2023/11/17 00:35:46;;;;;;;6.55;4.25;;;10.20;94.10;;;;;;5081344;28;20244;-70
2023/11/17 00:38:13;;;;;;;5.63;3.85;;;10.40;94.00;;;;;;5081227;28;20016;-70
2023/11/17 00:40:38;;;;;;;5.88;3.28;;;10.30;94.00;;;;;;5081158;28;20308;-70
2023/11/17 00:43:04;;;;;;;6.22;3.72;;;;;;;;;;5081045;28;20021;-75
2023/11/17 00:45:31;;;;;;;5.35;3.17;;;10.30;85.80;;;;;;5081130;28;20035;-70
2023/11/17 00:47:58;;;;;;;6.13;3.25;;;;;;;;;;5081182;28;20013;-74
2023/11/17 00:50:24;;;;;;;5.82;2.85;;;10.20;91.50;;;;;;5081190;28;20016;-71
2023/11/17 00:52:49;;;;;;;5.40;3.30;;;10.30;93.80;;;;;;5080985;28;20351;-72
2023/11/17 00:55:15;;;;;;;6.05;3.50;;;10.30;84.90;;;;;;5080798;28;20039;-72
2023/11/17 00:57:42;;;;;;;7.57;3.58;;;;;;;;;;5080839;28;20097;-72
2023/11/17 01:00:09;;;;;;;10.32;3.33;;;10.30;92.40;;;;;;5080975;28;20017;-72
2023/11/17 01:02:34;;;;;;;5.35;3.28;;;10.10;93.60;;;;;;5081148;28;20032;-71
2023/11/17 01:05:01;;;;;;;8.45;3.17;;;;;;;;;;5083865;28;20073;-72
2023/11/17 01:07:27;;;;;;;5.38;2.97;;;;;;;;;;5084620;28;20024;-73
2023/11/17 01:09:52;;;;;;;4.57;2.95;;;10.20;93.60;;;;;;5084415;28;20112;-74
2023/11/17 01:12:18;;;;;;;7.13;3.15;;;10.40;93.50;;;;;;5085476;28;20304;-73
2023/11/17 01:14:43;;;;;;;6.28;2.72;;;10.20;87.90;;;;;;5084918;28;20312;-72
2023/11/17 01:17:11;;;;;;;5.97;3.20;;;10.30;93.60;;;;;;5082933;28;20331;-69
2023/11/17 01:19:40;;;;;;;6.68;3.72;;;;;;;;;;5081235;28;20017;-72
2023/11/17 01:22:06;;;;;;;6.22;3.33;;;;;;;;;;5081115;28;20077;-71
2023/11/17 01:24:33;;;;;;;5.30;3.42;;;10.20;93.30;;;;;;5080598;28;20087;-71
2023/11/17 01:27:04;;;;;;;5.65;3.30;;;10.30;93.40;;;;;;5080669;28;20036;-71
2023/11/17 01:29:31;;;;;;;7.75;3.88;;;10.10;93.20;;;;;;5079854;28;20032;-70
2023/11/17 01:31:56;;;;;;;5.15;2.92;;;;;;;;;;5080635;28;20023;-70
2023/11/17 01:34:22;;;;;;;6.55;3.25;;;10.30;92.60;;;;;;5080717;28;20020;-71
2023/11/17 01:36:48;;;;;;;8.52;3.80;;;10.40;93.10;;;;;;5080594;28;20019;-71
2023/11/17 01:39:14;;;;;;;7.38;3.03;;;10.70;93.00;;;;;;5080669;28;20017;-71
2023/11/17 01:41:42;;;;;;;5.03;3.00;;;10.30;93.10;;;;;;5080463;28;20012;-70
2023/11/17 01:44:07;;;;;;;6.35;3.28;;;10.50;93.20;;;;;;5079401;28;20023;-71
2023/11/17 01:46:34;;;;;;;4.88;2.78;;;10.20;93.20;;;;;;5080311;28;20243;-70
2023/11/17 01:49:00;;;;;;;7.72;3.17;;;10.40;93.10;;;;;;5080506;28;20036;-71
2023/11/17 01:51:25;;;;;;;7.60;3.10;;;10.20;93.20;;;;;;5080345;28;20044;-70
2023/11/17 01:53:53;;;;;;;8.68;3.95;;;;;;;;;;5080608;28;20028;-71
2023/11/17 01:56:20;;;;;;;5.85;3.25;;;10.20;93.30;;;;;;5079012;28;20284;-71
2023/11/17 01:58:50;;;;;;;5.97;2.85;;;10.30;93.30;;;;;;5080389;28;20020;-70
2023/11/17 02:01:15;;;;;;;5.93;3.63;;;10.60;93.40;;;;;;5080240;28;20013;-70
2023/11/17 02:03:42;;;;;;;5.03;3.03;;;;;;;;;;5080468;28;20104;-71
2023/11/17 02:06:26;;;;;;;4.60;2.85;;;10.40;93.30;;;;;;5080422;28;20020;-70
2023/11/17 02:09:13;;;;;;;4.13;2.80;;;10.30;84.00;;;;;;5080317;28;20079;-71
2023/11/17 02:11:49;;;;;;;7.15;4.40;;;10.20;93.70;;;;;;5080274;28;20088;-71
2023/11/17 02:14:21;;;;;;;7.60;3.65;;;10.40;93.90;;;;;;5080280;28;20027;-71
2023/11/17 02:16:51;;;;;;;7.00;4.03;;;10.30;85.40;;;;;;5080135;28;20051;-70
2023/11/17 02:19:30;;;;;;;6.35;2.78;;;10.30;85.90;;;;;;5079963;28;20381;-74
2023/11/17 02:21:58;;;;;;;;;;;10.30;86.50;;;;;;5080392;28;20033;-71
2023/11/17 02:24:30;;;;;;;5.47;3.50;;;10.20;85.80;;;;;;5080007;28;19907;-71
2023/11/17 02:27:19;;;;;;;5.00;3.17;;;10.20;85.80;;;;;;5079805;28;20111;-71
2023/11/17 02:29:47;;;;;;;5.72;2.72;;;10.10;94.40;;;;;;5079973;28;20221;-70
2023/11/17 02:32:16;;;;;;;5.60;2.95;;;10.30;94.30;;;;;;5079941;28;20083;-71
2023/11/17 02:34:44;;;;;;;7.45;3.20;;;12.00;86.70;;;;;;5079651;28;20032;-70
2023/11/17 02:37:11;;;;;;;6.57;2.77;;;10.30;94.30;;;;;;5079742;28;20017;-71
2023/11/17 02:39:38;;;;;;;6.72;2.80;;;;;;;;;;5079780;28;20031;-70
2023/11/17 02:42:10;;;;;;;5.45;2.88;;;;;;;;;;5082444;28;20016;-69
2023/11/17 02:44:39;;;;;;;8.13;2.80;;;10.30;85.20;;;;;;5083362;28;20055;-72
2023/11/17 02:47:08;;;;;;;4.25;2.60;;;10.20;94.00;;;;;;5083450;28;20044;-71
2023/11/17 02:49:40;;;;;;;8.13;2.92;;;;;;;;;;5083556;28;20032;-71
2023/11/17 02:52:09;;;;;;;6.30;3.80;;;10.80;93.80;;;;;;5083743;28;20025;-73
2023/11/17 02:54:36;;;;;;;5.65;3.08;;;10.20;88.60;;;;;;5083423;28;20020;-72
2023/11/17 02:57:04;;;;;;;3.40;2.47;;;10.40;93.50;;;;;;5083501;28;20031;-72
2023/11/17 02:59:34;;;;;;;4.53;2.83;;;10.30;93.40;;;;;;5083329;28;20023;-75
2023/11/17 03:02:04;;;;;;;6.68;3.50;;;10.20;93.30;;;;;;5083181;28;20208;-72
2023/11/17 03:04:30;;;;;;;4.35;2.67;;;10.20;93.20;;;;;;5082892;28;20027;-72
2023/11/17 03:06:57;;;;;;;5.97;3.13;;;10.30;83.40;;;;;;5083281;28;20029;-74
2023/11/17 03:09:23;;;;;;;4.53;2.95;;;10.40;93.30;;;;;;5082694;28;20036;-73
2023/11/17 03:11:59;;;;;;;4.53;3.22;;;10.20;85.30;;;;;;5083245;28;20027;-74
2023/11/17 03:14:26;;;;;;;7.28;2.90;;;10.20;93.00;;;;;;5082737;28;20043;-74
2023/11/17 03:16:53;;;;;;;7.00;2.95;;;10.30;92.90;;;;;;5082777;28;20020;-74
2023/11/17 03:19:19;;;;;;;4.30;3.03;;;;;;;;;;5082909;28;20051;-74
2023/11/17 03:21:45;;;;;;;4.25;2.78;;;10.40;93.10;;;;;;5082891;28;20076;-74
2023/11/17 03:24:20;;;;;;;4.70;3.17;;;10.30;83.00;;;;;;5082487;28;20170;-73
2023/11/17 03:26:50;;;;;;;6.10;4.28;;;10.80;86.70;;;;;;5082747;28;20368;-73
2023/11/17 03:29:15;;;;;;;4.45;3.03;;;10.10;83.50;;;;;;5082346;28;20035;-73
2023/11/17 03:31:48;;;;;;;7.20;3.50;;;10.30;85.80;;;;;;5082547;28;20028;-71
2023/11/17 03:34:29;;;;;;;10.52;4.45;;;10.30;83.40;;;;;;5081060;28;20033;-72
2023/11/17 03:37:04;;;;;;;4.60;2.88;;;10.20;83.60;;;;;;5082314;28;20070;-72
2023/11/17 03:39:30;;;;;;;7.63;3.15;;;10.00;93.30;;;;;;5082367;28;20028;-72
2023/11/17 03:41:57;;;;;;;5.95;3.60;;;10.10;88.60;;;;;;5082457;28;20036;-73
2023/11/17 03:44:29;;;;;;;8.38;3.03;;;9.90;93.60;;;;;;5082126;28;20017;-70
2023/11/17 03:46:55;;;;;;;5.47;3.47;;;10.00;93.80;;;;;;5082113;28;20066;-70
2023/11/17 03:49:21;;;;;;;4.15;3.05;;;10.20;89.00;;;;;;5082326;28;20064;-71
2023/11/17 03:51:50;;;;;;;4.55;3.47;;;9.90;90.90;;;;;;5082163;28;20422;-72
2023/11/17 03:54:16;;;;;;;4.47;3.08;;;;;;;;;;5081655;28;20043;-71
2023/11/17 03:56:44;;;;;;;6.70;3.80;;;9.90;85.90;;;;;;5082082;28;20020;-72
2023/11/17 03:59:13;;;;;;;9.95;3.10;;;9.80;93.40;;;;;;5081999;28;20020;-72
2023/11/17 04:01:42;;;;;;;6.90;4.40;;;9.80;94.80;;;;;;5081975;28;20031;-72
2023/11/17 04:04:08;;;;;;;9.13;4.57;;;9.60;95.00;;;;;;5081990;28;20020;-71
2023/11/17 04:06:34;;;;;;;8.10;4.35;;;9.80;95.40;;;;;;5082005;28;20160;-72
2023/11/17 04:09:15;;;;;;;7.00;4.38;;;9.60;88.90;;;;;;5081837;28;20240;-71
2023/11/17 04:11:41;;;;;;;6.53;4.43;;;;;;;;;;5081850;28;20025;-72
2023/11/17 04:14:07;;;;;;;7.95;5.03;;;9.70;95.20;;;;;;5080417;28;20043;-72
2023/11/17 04:16:33;;;;;;;6.97;4.10;;;9.50;95.90;;;;;;5081566;28;20020;-72
2023/11/17 04:19:00;;;;;;;5.97;3.88;;;9.70;96.20;;;;;;5081648;28;20024;-71
2023/11/17 04:21:26;;;;;;;8.48;3.75;;;9.90;93.60;;;;;;5081303;28;20220;-72
2023/11/17 04:23:52;;;;;;;7.13;3.80;;;;;;;;;;5081561;28;20050;-70
2023/11/17 04:26:19;;;;;;;9.23;3.78;;;9.60;97.30;;;;;;5081143;28;20078;-71
2023/11/17 04:28:47;;;;;;;5.93;3.17;;;;;;;;;;5081477;28;20403;-71
2023/11/17 04:31:13;;;;;;;9.75;3.95;;;;;;;;;;5081281;28;20012;-71
2023/11/17 04:33:39;;;;;;;6.40;3.35;;;9.20;97.70;;;;;;5081232;28;20393;-71
2023/11/17 04:36:05;;;;;;;4.80;3.08;;;;;;;;;;5081344;28;20013;-71
2023/11/17 04:38:31;;;;;;;6.53;3.25;;;;;;;;;;5081240;28;20134;-71
2023/11/17 04:40:58;;;;;;;7.70;3.40;;;;;;;;;;5080961;28;20021;-70
2023/11/17 04:43:24;;;;;;;9.18;4.15;;;9.40;98.40;;;;;;5081426;28;20024;-74
2023/11/17 04:45:49;;;;;;;6.65;3.40;;;9.30;98.60;;;;;;5081147;28;20204;-70
2023/11/17 04:48:16;;;;;;;5.25;3.30;;;9.40;92.50;;;;;;5081011;28;20028;-71
2023/11/17 04:50:42;;;;;;;8.75;4.47;;;9.30;98.10;;;;;;5081219;28;20039;-70
2023/11/17 04:53:09;;;;;;;8.32;4.07;;;9.50;98.80;;;;;;5081119;28;20012;-71
2023/11/17 04:55:35;;;;;;;7.10;4.57;;;;;;;;;;5079939;28;20028;-71
2023/11/17 04:58:01;;;;;;;9.43;3.97;;;;;;;;;;5081482;28;20036;-71
2023/11/17 05:00:27;;;;;;;8.70;4.15;;;9.30;94.60;;;;;;5080855;28;20340;-71
2023/11/17 05:02:53;;;;;;;8.90;5.20;;;9.20;99.20;;;;;;5080913;28;20024;-71
2023/11/17 05:05:20;;;;;;;7.45;4.32;;;9.30;99.50;;;;;;5080814;28;20028;-70
2023/11/17 05:07:46;;;;;;;9.05;5.18;;;9.30;93.40;;;;;;5081190;28;20024;-71
2023/11/17 05:10:14;;;;;;;10.68;5.70;;;9.30;93.40;;;;;;5080741;28;20339;-70
2023/11/17 05:12:40;;;;;;;8.50;5.07;;;9.50;99.80;;;;;;5081120;28;20028;-71
2023/11/17 05:15:13;;;;;;;10.10;5.88;;;;;;;;;;5079774;28;20229;-70
2023/11/17 05:17:48;;;;;;;12.88;5.85;;;9.50;99.80;;;;;;5080809;28;20020;-71
2023/11/17 05:20:20;;;;;;;9.52;6.75;;;9.40;99.80;;;;;;5080864;28;20012;-70
2023/11/17 05:22:47;;;;;;;10.73;6.22;;;9.30;93.70;;;;;;5080779;28;20024;-71
2023/11/17 05:25:15;;;;;;;13.95;6.68;;;9.40;93.80;;;;;;5080381;28;20048;-70
2023/11/17 05:27:42;;;;;;;8.60;5.40;;;9.30;99.90;;;;;;5080497;28;20083;-71
2023/11/17 05:30:16;;;;;;;9.38;5.35;;;9.30;99.90;;;;;;5080307;28;20340;-72
2023/11/17 05:32:43;;;;;;;8.52;4.82;;;;;;;;;;5080758;28;20025;-70
2023/11/17 05:35:10;;;;;;;7.72;5.25;;;9.60;99.90;;;;;;5080554;28;20029;-72
2023/11/17 05:37:37;;;;;;;11.50;5.82;;;9.40;94.10;;;;;;5080670;28;20107;-71
2023/11/17 05:40:05;;;;;;;12.10;5.53;;;9.10;95.10;;;;;;5080433;28;20056;-71
2023/11/17 05:42:31;;;;;;;7.70;5.38;;;;;;;;;;5080022;28;20027;-71
2023/11/17 05:44:57;;;;;;;10.93;6.20;;;;;;;;;;5079898;28;20055;-72
2023/11/17 05:47:23;;;;;;;12.75;6.28;;;9.30;99.90;;;;;;5079425;28;20017;-72
2023/11/17 05:49:49;;;;;;;11.05;6.30;;;9.20;99.90;;;;;;5079616;28;20345;-73
2023/11/17 05:52:16;;;;;;;13.25;6.43;;;9.10;99.90;;;;;;5080133;28;20036;-72
2023/11/17 05:54:45;;;;;;;15.73;7.15;;;9.00;95.90;;;;;;5080268;28;20024;-70
2023/11/17 05:57:15;;;;;;;11.52;7.15;;;9.20;95.20;;;;;;5080140;28;20020;-71
2023/11/17 05:59:42;;;;;;;11.68;6.88;;;9.00;99.90;;;;;;5080228;28;20348;-70
2023/11/17 06:02:09;;;;;;;13.50;6.53;;;9.20;95.30;;;;;;5079883;28;20027;-71
2023/11/17 06:04:35;;;;;;;9.85;5.95;;;9.60;99.90;;;;;;5080188;28;20031;-71
2023/11/17 06:07:02;;;;;;;13.23;6.95;;;;;;;;;;5079996;28;20092;-75
2023/11/17 06:09:28;;;;;;;13.38;6.93;;;;;;;;;;5079789;28;20078;-71
2023/11/17 06:11:55;;;;;;;16.05;7.30;;;9.20;99.90;;;;;;5079856;28;20016;-71
2023/11/17 06:14:27;;;;;;;15.07;8.00;;;9.40;99.90;;;;;;5079975;28;20016;-71
2023/11/17 06:16:53;;;;;;;13.77;7.30;;;;;;;;;;5082362;28;20542;-71
2023/11/17 06:19:20;;;;;;;14.00;7.63;;;9.40;99.90;;;;;;5083767;28;20012;-71
2023/11/17 06:21:46;;;;;;;20.08;10.02;;;9.30;99.90;;;;;;5083715;28;20016;-72
2023/11/17 06:24:14;;;;;;;15.77;8.98;;;9.30;99.90;;;;;;5083540;28;20033;-71
2023/11/17 06:26:41;;;;;;;16.73;9.30;;;9.30;99.90;;;;;;5083489;28;20052;-72
2023/11/17 06:29:07;;;;;;;22.75;8.93;;;;;;;;;;5083770;28;20040;-71
2023/11/17 06:31:32;;;;;;;15.05;9.40;;;9.20;99.90;;;;;;5083698;28;20013;-71
2023/11/17 06:33:58;;;;;;;13.32;7.53;;;;;;;;;;5083637;28;20499;-74
2023/11/17 06:36:24;;;;;;;14.50;7.85;;;9.30;99.90;;;;;;5084617;28;20073;-74
2023/11/17 06:38:50;;;;;;;15.07;9.25;;;9.30;99.90;;;;;;5083784;28;20027;-73
2023/11/17 06:41:15;;;;;;;16.25;7.97;;;9.50;99.90;;;;;;5083605;28;20028;-74
2023/11/17 06:43:41;;;;;;;16.88;8.52;;;9.20;96.60;;;;;;5083804;28;20033;-75
2023/11/17 06:46:07;;;;;;;14.63;7.88;;;;;;;;;;5083424;28;20296;-74
2023/11/17 06:48:39;;;;;;;11.55;7.78;;;9.50;96.10;;;;;;5083626;28;20045;-76
2023/11/17 06:51:07;;;;;;;11.60;7.13;;;9.30;99.20;;;;;;5083357;28;20247;-76
2023/11/17 06:53:33;;;;;;;17.13;8.25;;;9.40;99.90;;;;;;5083666;28;20016;-75
2023/11/17 06:56:03;;;;;;;13.55;7.60;;;9.50;96.20;;;;;;5083316;28;20156;-74
2023/11/17 06:58:29;;;;;;;15.48;7.35;;;;;;;;;;5083292;28;20055;-75
2023/11/17 07:00:55;;;;;;;10.65;7.03;;;9.40;99.90;;;;;;5081973;28;20027;-75
2023/11/17 07:03:22;;;;;;;15.93;8.18;;;;;;;;;;5082099;28;20036;-75
2023/11/17 07:05:49;;;;;;;16.92;8.20;;;9.30;99.90;;;;;;5083138;28;20013;-75
2023/11/17 07:08:15;;;;;;;13.32;7.47;;;;;;;;;;5081889;28;20066;-75
2023/11/17 07:10:43;;;;;;;14.52;6.90;;;9.30;99.90;;;;;;5083101;28;20028;-76
2023/11/17 07:13:10;;;;;;;13.75;8.20;;;;;;;;;;5083210;28;20047;-75
2023/11/17 07:15:36;;;;;;;16.70;8.85;;;9.90;99.90;;;;;;5081567;28;20031;-74
2023/11/17 07:18:03;;;;;;;17.77;9.55;;;9.50;98.50;;;;;;5083416;28;20058;-74
2023/11/17 07:20:31;;;;;;;16.08;9.70;;;;;;;;;;5083425;28;20197;-72
2023/11/17 07:22:57;;;;;;;16.67;9.15;;;9.70;99.90;;;;;;5082925;28;20051;-74
2023/11/17 07:25:23;;;;;;;17.25;9.50;;;9.70;99.90;;;;;;5082985;28;20112;-74
2023/11/17 07:27:49;;;;;;;14.35;7.97;;;9.80;99.90;;;;;;5082935;28;20027;-74
2023/11/17 07:30:17;;;;;;;19.45;10.23;;;;;;;;;;5082778;28;20043;-74
2023/11/17 07:32:43;;;;;;;19.00;10.10;;;9.80;99.90;;;;;;5082729;28;20020;-74
2023/11/17 07:35:09;;;;;;;14.52;9.68;;;10.00;99.00;;;;;;5082618;28;20016;-74
2023/11/17 07:37:35;;;;;;;13.05;7.25;;;;;;;;;;5082557;28;20275;-75
2023/11/17 07:40:04;;;;;;;14.77;7.10;;;10.20;95.10;;;;;;5082564;28;20035;-74
2023/11/17 07:42:31;;;;;;;14.98;6.38;;;;;;;;;;5082395;28;20031;-74
2023/11/17 07:44:56;;;;;;;8.93;6.75;;;10.30;99.90;;;;;;5082078;28;20074;-75
2023/11/17 07:47:24;;;;;;;9.98;6.50;;;10.40;99.90;;;;;;5083082;28;20017;-74
2023/11/17 07:49:54;;;;;;;12.30;6.60;;;10.30;99.90;;;;;;5084000;28;20042;-74
2023/11/17 07:52:21;;;;;;;13.50;7.10;;;;;;;;;;5083138;28;20032;-76
2023/11/17 07:54:47;;;;;;;9.82;6.60;;;;;;;;;;5083583;28;20024;-75
2023/11/17 07:57:13;;;;;;;10.23;5.90;;;9.80;99.90;;;;;;5078776;28;20084;-75
2023/11/17 07:59:40;;;;;;;10.75;6.63;;;10.00;99.90;;;;;;5062785;28;20518;-75
2023/11/17 08:02:06;;;;;;;8.80;5.90;;;;;;;;;;5063006;28;20066;-76
2023/11/17 08:04:32;;;;;;;12.43;5.90;;;10.10;99.90;;;;;;5079665;28;20054;-76
2023/11/17 08:06:58;;;;;;;8.82;6.05;;;10.10;99.90;;;;;;5075550;28;20104;-80
2023/11/17 08:09:24;;;;;;;8.63;6.53;;;9.70;99.90;;;;;;5083974;28;20327;-74
2023/11/17 08:11:49;;;;;;;9.18;6.60;;;9.70;99.90;;;;;;5082069;28;20043;-75
2023/11/17 08:14:15;;;;;;;13.52;6.70;;;;;;;;;;5081460;28;20036;-75
2023/11/17 08:16:41;;;;;;;8.45;6.07;;;;;;;;;;5082057;28;20087;-74
2023/11/17 08:19:11;;;;;;;8.70;6.50;;;9.30;98.70;;;;;;5082114;28;20032;-78
2023/11/17 08:21:39;;;;;;;;;;;9.50;96.60;;;;;;5082547;28;20032;-74
2023/11/17 08:24:06;;;;;;;9.40;6.40;;;9.30;99.90;;;;;;5082255;28;19901;-75
2023/11/17 08:26:32;;;;;;;8.50;6.63;;;9.10;99.90;;;;;;5081776;28;20059;-76
2023/11/17 08:29:03;;;;;;;10.60;7.35;;;9.00;99.90;;;;;;5081830;28;20039;-76
2023/11/17 08:31:29;;;;;;;11.20;8.50;;;9.30;99.90;;;;;;5081904;28;20013;-76
2023/11/17 08:33:55;;;;;;;9.63;7.40;;;9.00;99.90;;;;;;5080511;28;20029;-75
2023/11/17 08:36:24;;;;;;;13.77;7.63;;;8.90;98.80;;;;;;5082152;28;20021;-75
2023/11/17 08:38:52;;;;;;;11.55;7.70;;;8.90;99.90;;;;;;5081052;28;20388;-76
2023/11/17 08:41:17;;;;;;;14.48;8.85;;;8.70;99.90;;;;;;5081823;28;20029;-76
2023/11/17 08:43:45;;;;;;;13.80;8.77;;;8.80;99.90;;;;;;5081409;28;20062;-77
2023/11/17 08:46:10;;;;;;;13.25;9.45;;;8.80;99.90;;;;;;5081500;28;20185;-75
2023/11/17 08:48:37;;;;;;;10.82;7.78;;;8.90;99.90;;;;;;5081438;28;20332;-75
2023/11/17 08:51:06;;;;;;;14.13;8.57;;;8.90;99.90;;;;;;5081559;28;20387;-76
2023/11/17 08:53:32;;;;;;;17.42;9.40;;;;;;;;;;5081439;28;20040;-76
2023/11/17 08:56:01;;;;;;;14.02;9.65;;;8.70;99.90;;;;;;5081498;28;20099;-75
2023/11/17 08:58:27;;;;;;;11.65;7.53;;;;;;;;;;5081413;28;20243;-75
2023/11/17 09:00:53;;;;;;;11.95;8.45;;;8.70;99.90;;;;;;5081073;28;20332;-74
2023/11/17 09:03:19;;;;;;;13.40;9.52;;;;;;;;;;5080930;28;20024;-75
2023/11/17 09:05:45;;;;;;;12.25;9.27;;;8.80;99.90;;;;;;5080929;28;20260;-75
2023/11/17 09:08:11;;;;;;;11.63;8.77;;;9.00;99.90;;;;;;5080929;28;20024;-75
2023/11/17 09:10:37;;;;;;;15.68;9.43;;;;;;;;;;5080913;28;20063;-75
2023/11/17 09:13:04;;;;;;;8.63;7.05;;;8.20;99.90;;;;;;5080735;28;20031;-75
2023/11/17 09:15:33;;;;;;;9.65;7.97;;;8.80;99.90;;;;;;5080897;28;20035;-76
2023/11/17 09:17:59;;;;;;;11.32;8.48;;;8.80;99.90;;;;;;5079685;28;20052;-78
2023/11/17 09:20:27;;;;;;;12.45;9.02;;;8.60;99.90;;;;;;5079676;28;20028;-76
2023/11/17 09:22:54;;;;;;;13.32;8.88;;;8.80;99.90;;;;;;5080792;28;20518;-77
2023/11/17 09:25:23;;;;;;;13.07;9.18;;;9.20;99.90;;;;;;5080857;28;20052;-75
2023/11/17 09:27:59;;;;;;;11.97;8.40;;;8.60;99.90;;;;;;5081059;28;20055;-76
2023/11/17 09:30:28;;;;;;;12.00;8.88;;;9.20;99.90;;;;;;5081205;28;20098;-75
2023/11/17 09:32:55;;;;;;;12.75;9.20;;;8.60;99.90;;;;;;5081294;28;20056;-75
2023/11/17 09:35:22;;;;;;;13.38;10.23;;;8.80;99.90;;;;;;5081804;28;20025;-75
2023/11/17 09:37:50;;;;;;;14.98;11.25;;;8.80;99.90;;;;;;5081909;28;20085;-75
2023/11/17 09:40:22;;;;;;;16.10;10.38;;;8.70;99.90;;;;;;5081183;28;20212;-73
2023/11/17 09:42:53;;;;;;;14.50;10.40;;;8.70;99.90;;;;;;5081660;28;20078;-77
2023/11/17 09:45:27;;;;;;;15.50;11.82;;;9.20;99.90;;;;;;5081294;28;20020;-76
2023/11/17 09:47:55;;;;;;;17.13;11.35;;;8.90;99.90;;;;;;5081404;28;20028;-76
2023/11/17 09:50:22;;;;;;;14.25;10.35;;;8.90;99.90;;;;;;5063089;28;20091;-75
2023/11/17 09:52:49;;;;;;;14.73;10.25;;;8.90;99.90;;;;;;5064751;28;20025;-75
2023/11/17 09:55:20;;;;;;;15.00;10.05;;;8.80;99.90;;;;;;5075694;28;20017;-75
2023/11/17 09:57:53;;;;;;;15.18;8.95;;;8.80;99.90;;;;;;5064962;28;20202;-75
2023/11/17 10:00:20;;;;;;;15.75;10.65;;;8.80;99.90;;;;;;5065023;28;20041;-75
2023/11/17 10:02:54;;;;;;;15.30;10.65;;;8.90;99.90;;;;;;5064763;28;20021;-75
2023/11/17 10:05:25;;;;;;;14.27;9.05;;;8.80;99.90;;;;;;5065320;28;20239;-76
2023/11/17 10:07:54;;;;;;;15.02;11.18;;;8.80;99.90;;;;;;5065042;28;20372;-77
2023/11/17 10:10:21;;;;;;;15.38;10.13;;;8.80;99.90;;;;;;5085241;28;20044;-77
2023/11/17 10:12:49;;;;;;;12.95;8.70;;;9.00;99.90;;;;;;5085075;28;20035;-76
2023/11/17 10:15:24;;;;;;;12.45;9.57;;;8.90;99.90;;;;;;5085432;28;20029;-76
2023/11/17 10:17:53;;;;;;;14.85;11.15;;;9.10;99.90;;;;;;5085370;28;20063;-73
2023/11/17 10:20:23;;;;;;;13.63;10.05;;;9.20;99.90;;;;;;5085355;28;20024;-76
2023/11/17 10:22:50;;;;;;;10.80;7.50;;;9.10;99.90;;;;;;5084663;28;20024;-76
2023/11/17 10:25:18;;;;;;;10.55;7.75;;;9.10;99.90;;;;;;5084751;28;20036;-74
2023/11/17 10:27:51;;;;;;;9.07;6.95;;;9.10;99.90;;;;;;5084944;28;20025;-75
2023/11/17 10:30:30;;;;;;;11.38;6.72;;;9.30;99.90;;;;;;5084531;28;20059;-74
2023/11/17 10:33:20;;;;;;;7.38;5.60;;;9.20;99.90;;;;;;5083770;28;20312;-77
2023/11/17 10:36:04;;;;;;;5.72;4.70;;;8.90;99.90;;;;;;5079168;28;20331;-74
2023/11/17 10:38:34;;;;;;;6.15;4.85;;;9.00;99.90;;;;;;5062455;28;20029;-74
2023/11/17 10:41:33;;;;;;;6.45;4.80;;;9.00;99.90;;;;;;5063842;28;20097;-76
2023/11/17 10:44:03;;;;;;;5.70;4.78;;;9.10;99.90;;;;;;5052024;28;20060;-75
2023/11/17 10:46:36;;;;;;;3.85;3.42;;;8.90;99.90;;;;;;5064288;28;20367;-75
2023/11/17 10:49:06;;;;;;;5.28;4.03;;;9.00;99.90;;;;;;5071271;28;20074;-75
2023/11/17 10:51:33;;;;;;;6.55;4.50;;;9.00;99.90;;;;;;5084022;28;20043;-75
2023/11/17 10:54:09;;;;;;;4.43;3.72;;;8.80;99.90;;;;;;5083466;28;20023;-74
2023/11/17 10:56:36;;;;;;;5.07;3.95;;;10.10;99.90;;;;;;5083502;28;20032;-76
2023/11/17 10:59:03;;;;;;;4.05;3.50;;;8.30;99.90;;;;;;5083685;28;20059;-76
2023/11/17 11:01:35;;;;;;;3.80;3.40;;;;;;;;;;5082409;28;20024;-75
2023/11/17 11:06:47;;;;;;;5.70;2.05;;;;;;;;;;5075997;28;20056;-74
2023/11/17 11:09:18;;;;;;;2.10;1.70;;;9.00;99.90;;;;;;5072021;28;20025;-75
2023/11/17 11:11:50;;;;;;;2.72;1.60;;;9.10;99.90;;;;;;5062954;28;20013;-75
2023/11/17 11:14:17;;;;;;;2.22;1.77;;;;;;;;;;5062832;28;20028;-74
2023/11/17 11:16:46;;;;;;;2.50;1.70;;;9.00;99.90;;;;;;5063033;28;20013;-75
2023/11/17 11:19:13;;;;;;;;;;;9.00;99.90;;;;;;5063341;28;20035;-74
2023/11/17 11:21:40;;;;;;;2.10;1.80;;;9.00;99.90;;;;;;5062967;28;19939;-74
2023/11/17 11:24:08;;;;;;;3.95;1.80;;;8.80;99.90;;;;;;5063071;28;20032;-74
2023/11/17 11:26:38;;;;;;;7.97;2.60;;;8.70;99.90;;;;;;5062726;28;20032;-75
2023/11/17 11:29:05;;;;;;;4.40;2.10;;;9.30;99.90;;;;;;5062031;28;20329;-74
2023/11/17 11:31:32;;;;;;;2.50;2.00;;;;;;;;;;5062550;28;20546;-76
2023/11/17 11:34:01;;;;;;;5.43;2.83;;;8.70;99.90;;;;;;5062648;28;20028;-74
2023/11/17 11:36:27;;;;;;;4.93;3.88;;;8.70;99.90;;;;;;5062791;28;20273;-76
2023/11/17 11:38:52;;;;;;;5.38;3.95;;;8.80;99.90;;;;;;5062729;28;20025;-76
2023/11/17 11:41:22;;;;;;;5.65;3.67;;;8.60;99.90;;;;;;5062518;28;20390;-75
2023/11/17 11:43:54;;;;;;;6.00;3.00;;;8.30;99.90;;;;;;5062701;28;20083;-74
2023/11/17 11:46:23;;;;;;;4.07;3.28;;;8.80;99.90;;;;;;5062518;28;20021;-74
2023/11/17 11:49:22;;;;;;;4.82;3.65;;;8.40;99.90;;;;;;5062125;28;20072;-72
2023/11/17 11:51:56;;;;;;;6.38;3.63;;;8.40;99.90;;;;;;5039560;28;20033;-73
2023/11/17 11:54:23;;;;;;;6.50;4.10;;;8.50;99.90;;;;;;5062232;28;20020;-71
2023/11/17 11:56:49;;;;;;;5.65;3.78;;;8.50;99.90;;;;;;5061846;28;20376;-74
2023/11/17 11:59:15;;;;;;;7.30;4.50;;;8.90;99.90;;;;;;5062237;28;20028;-74
2023/11/17 12:01:47;;;;;;;5.72;4.38;;;8.50;99.90;;;;;;5062230;28;20055;-74
2023/11/17 12:04:12;;;;;;;6.10;4.90;;;8.40;99.90;;;;;;5062257;28;20201;-74
2023/11/17 12:06:40;;;;;;;7.07;4.28;;;8.40;99.90;;;;;;5062059;28;20312;-73
2023/11/17 12:09:08;;;;;;;7.07;4.50;;;8.20;99.90;;;;;;5061778;28;20309;-73
2023/11/17 12:11:33;;;;;;;5.40;4.10;;;8.60;99.90;;;;;;5061854;28;20205;-74
2023/11/17 12:13:59;;;;;;;5.22;3.83;;;;;;;;;;5061162;28;20013;-74
2023/11/17 12:16:40;;;;;;;5.30;4.03;;;8.60;99.90;;;;;;5061862;28;20370;-74
2023/11/17 12:19:07;;;;;;;4.88;3.67;;;8.50;99.90;;;;;;5064280;28;20029;-74
2023/11/17 12:21:38;;;;;;;3.55;3.25;;;8.30;99.90;;;;;;5081994;28;20185;-74
2023/11/17 12:24:15;;;;;;;4.65;3.22;;;8.50;99.90;;;;;;5081653;28;20247;-74
2023/11/17 12:26:44;;;;;;;4.38;3.25;;;8.40;99.90;;;;;;5081421;28;20045;-74
2023/11/17 12:29:18;;;;;;;3.85;3.17;;;8.50;99.90;;;;;;5081481;28;20059;-74
2023/11/17 12:31:51;;;;;;;4.00;3.45;;;8.50;99.90;;;;;;5081751;28;20020;-74
2023/11/17 12:34:17;;;;;;;4.28;2.65;;;;;;;;;;5081734;28;20236;-74
2023/11/17 12:36:45;;;;;;;4.05;2.97;;;8.40;99.90;;;;;;5081288;28;20324;-74
2023/11/17 12:39:15;;;;;;;5.93;3.03;;;8.40;99.90;;;;;;5081551;28;20208;-73
2023/11/17 12:41:43;;;;;;;3.67;2.90;;;8.40;99.90;;;;;;5081493;28;20059;-75
2023/11/17 12:44:16;;;;;;;2.63;2.42;;;8.20;99.90;;;;;;5081300;28;20017;-75
2023/11/17 12:46:43;;;;;;;5.60;3.47;;;8.40;99.90;;;;;;5081462;28;20078;-74
2023/11/17 12:49:09;;;;;;;8.02;3.67;;;8.50;99.90;;;;;;5081265;28;20059;-75
2023/11/17 12:51:35;;;;;;;5.30;3.63;;;8.60;99.90;;;;;;5081217;28;20020;-74
2023/11/17 12:54:05;;;;;;;4.30;3.88;;;8.40;99.90;;;;;;5077631;28;20066;-72
2023/11/17 12:56:31;;;;;;;5.88;4.00;;;8.30;99.90;;;;;;5081299;28;20020;-74
2023/11/17 12:58:58;;;;;;;7.50;4.10;;;;;;;;;;5080982;28;20024;-71
2023/11/17 13:01:26;;;;;;;4.50;3.92;;;8.10;99.90;;;;;;5081082;28;20299;-72
2023/11/17 13:03:58;;;;;;;7.03;4.50;;;8.10;99.90;;;;;;5080326;28;20024;-71
2023/11/17 13:06:25;;;;;;;5.47;4.18;;;8.00;99.90;;;;;;5080658;28;20032;-72
2023/11/17 13:08:53;;;;;;;9.05;4.22;;;10.30;99.90;;;;;;5080576;28;20040;-70
2023/11/17 13:11:21;;;;;;;8.23;5.20;;;8.00;99.90;;;;;;5080552;28;20088;-71
2023/11/17 13:13:48;;;;;;;7.32;4.40;;;;;;;;;;5079293;28;20146;-72
2023/11/17 13:16:19;;;;;;;5.95;3.58;;;7.50;99.90;;;;;;5080510;28;20367;-72
2023/11/17 13:18:46;;;;;;;7.78;4.57;;;7.80;99.90;;;;;;5080617;28;20103;-70